sensor_id;sensor_type;location;lat;lon;timestamp;P1;durP1;ratioP1;P2;durP2;ratioP2
2039;SDS011;1025;42.686;23.350;2023-03-01T00:01:05;30.97;;;26.47;;
2039;SDS011;1025;42.686;23.350;2023-03-01T00:03:32;22.80;;;17.20;;
2039;SDS011;1025;42.686;23.350;2023-03-01T00:06:00;26.60;;;23.80;;
2039;SDS011;1025;42.686;23.350;2023-03-01T00:08:27;11.77;;;10.47;;
2039;SDS011;1025;42.686;23.350;2023-03-01T00:11:01;13.40;;;12.20;;
2039;SDS011;1025;42.686;23.350;2023-03-01T00:13:28;8.00;;;7.30;;
2039;SDS011;1025;42.686;23.350;2023-03-01T00:15:55;6.20;;;5.67;;
2039;SDS011;1025;42.686;23.350;2023-03-01T00:18:21;4.70;;;4.40;;
2039;SDS011;1025;42.686;23.350;2023-03-01T00:20:51;2.90;;;2.30;;
2039;SDS011;1025;42.686;23.350;2023-03-01T00:23:19;4.20;;;3.90;;
2039;SDS011;1025;42.686;23.350;2023-03-01T00:25:46;3.60;;;3.30;;
2039;SDS011;1025;42.686;23.350;2023-03-01T00:28:12;3.60;;;3.13;;
2039;SDS011;1025;42.686;23.350;2023-03-01T00:30:39;2.27;;;2.07;;
2039;SDS011;1025;42.686;23.350;2023-03-01T00:33:06;4.13;;;3.83;;
2039;SDS011;1025;42.686;23.350;2023-03-01T00:35:32;7.50;;;6.67;;
2039;SDS011;1025;42.686;23.350;2023-03-01T00:37:59;8.03;;;6.90;;
2039;SDS011;1025;42.686;23.350;2023-03-01T00:40:28;5.87;;;5.23;;
2039;SDS011;1025;42.686;23.350;2023-03-01T00:42:55;11.20;;;7.33;;
2039;SDS011;1025;42.686;23.350;2023-03-01T00:45:22;7.80;;;5.63;;
2039;SDS011;1025;42.686;23.350;2023-03-01T00:47:48;7.37;;;5.30;;
2039;SDS011;1025;42.686;23.350;2023-03-01T00:50:15;6.50;;;5.10;;
2039;SDS011;1025;42.686;23.350;2023-03-01T00:52:42;3.00;;;2.80;;
2039;SDS011;1025;42.686;23.350;2023-03-01T00:55:08;2.60;;;2.37;;
2039;SDS011;1025;42.686;23.350;2023-03-01T00:57:36;2.40;;;2.20;;
2039;SDS011;1025;42.686;23.350;2023-03-01T01:00:03;3.37;;;3.07;;
2039;SDS011;1025;42.686;23.350;2023-03-01T01:02:31;2.93;;;2.63;;
2039;SDS011;1025;42.686;23.350;2023-03-01T01:04:58;3.37;;;2.97;;
2039;SDS011;1025;42.686;23.350;2023-03-01T01:07:25;3.90;;;3.57;;
2039;SDS011;1025;42.686;23.350;2023-03-01T01:09:51;2.50;;;2.40;;
2039;SDS011;1025;42.686;23.350;2023-03-01T01:12:18;3.33;;;2.17;;
2039;SDS011;1025;42.686;23.350;2023-03-01T01:14:46;2.13;;;2.03;;
2039;SDS011;1025;42.686;23.350;2023-03-01T01:17:13;1.37;;;1.10;;
2039;SDS011;1025;42.686;23.350;2023-03-01T01:19:39;2.20;;;2.00;;
2039;SDS011;1025;42.686;23.350;2023-03-01T01:22:06;2.67;;;2.47;;
2039;SDS011;1025;42.686;23.350;2023-03-01T01:24:32;2.57;;;2.37;;
2039;SDS011;1025;42.686;23.350;2023-03-01T01:26:59;2.23;;;2.13;;
2039;SDS011;1025;42.686;23.350;2023-03-01T01:29:25;2.40;;;2.30;;
2039;SDS011;1025;42.686;23.350;2023-03-01T01:31:53;1.90;;;1.67;;
2039;SDS011;1025;42.686;23.350;2023-03-01T01:34:21;1.50;;;1.40;;
2039;SDS011;1025;42.686;23.350;2023-03-01T01:36:48;2.63;;;2.43;;
2039;SDS011;1025;42.686;23.350;2023-03-01T01:39:14;3.00;;;2.80;;
2039;SDS011;1025;42.686;23.350;2023-03-01T01:41:41;3.00;;;2.03;;
2039;SDS011;1025;42.686;23.350;2023-03-01T01:44:16;2.70;;;2.50;;
2039;SDS011;1025;42.686;23.350;2023-03-01T01:46:44;3.43;;;3.23;;
2039;SDS011;1025;42.686;23.350;2023-03-01T01:49:17;2.33;;;2.23;;
2039;SDS011;1025;42.686;23.350;2023-03-01T01:51:45;3.83;;;2.23;;
2039;SDS011;1025;42.686;23.350;2023-03-01T01:54:14;1.50;;;1.40;;
2039;SDS011;1025;42.686;23.350;2023-03-01T01:56:42;1.90;;;1.80;;
2039;SDS011;1025;42.686;23.350;2023-03-01T01:59:09;2.30;;;2.20;;
2039;SDS011;1025;42.686;23.350;2023-03-01T02:01:36;1.87;;;1.77;;
2039;SDS011;1025;42.686;23.350;2023-03-01T02:04:02;1.80;;;1.70;;
2039;SDS011;1025;42.686;23.350;2023-03-01T02:06:31;2.10;;;2.00;;
2039;SDS011;1025;42.686;23.350;2023-03-01T02:09:02;2.67;;;2.57;;
2039;SDS011;1025;42.686;23.350;2023-03-01T02:11:29;2.43;;;2.33;;
2039;SDS011;1025;42.686;23.350;2023-03-01T02:13:56;2.30;;;2.20;;
2039;SDS011;1025;42.686;23.350;2023-03-01T02:16:23;2.03;;;1.90;;
2039;SDS011;1025;42.686;23.350;2023-03-01T02:18:49;1.70;;;1.60;;
2039;SDS011;1025;42.686;23.350;2023-03-01T02:21:26;1.90;;;1.80;;
2039;SDS011;1025;42.686;23.350;2023-03-01T02:23:57;1.93;;;1.83;;
2039;SDS011;1025;42.686;23.350;2023-03-01T02:26:27;1.73;;;1.63;;
2039;SDS011;1025;42.686;23.350;2023-03-01T02:28:57;1.63;;;1.53;;
2039;SDS011;1025;42.686;23.350;2023-03-01T02:31:24;2.03;;;1.73;;
2039;SDS011;1025;42.686;23.350;2023-03-01T02:34:11;2.37;;;2.27;;
2039;SDS011;1025;42.686;23.350;2023-03-01T02:36:39;5.13;;;3.10;;
2039;SDS011;1025;42.686;23.350;2023-03-01T02:39:07;1.77;;;1.67;;
2039;SDS011;1025;42.686;23.350;2023-03-01T02:41:39;2.40;;;2.30;;
2039;SDS011;1025;42.686;23.350;2023-03-01T02:44:08;1.60;;;1.50;;
2039;SDS011;1025;42.686;23.350;2023-03-01T02:46:41;2.30;;;2.10;;
2039;SDS011;1025;42.686;23.350;2023-03-01T02:49:16;1.63;;;1.53;;
2039;SDS011;1025;42.686;23.350;2023-03-01T02:51:45;1.63;;;1.53;;
2039;SDS011;1025;42.686;23.350;2023-03-01T02:54:18;1.83;;;1.70;;
2039;SDS011;1025;42.686;23.350;2023-03-01T02:56:48;2.47;;;2.13;;
2039;SDS011;1025;42.686;23.350;2023-03-01T02:59:16;1.83;;;1.73;;
2039;SDS011;1025;42.686;23.350;2023-03-01T03:01:44;2.10;;;2.00;;
2039;SDS011;1025;42.686;23.350;2023-03-01T03:04:13;2.13;;;2.03;;
2039;SDS011;1025;42.686;23.350;2023-03-01T03:06:42;2.20;;;2.10;;
2039;SDS011;1025;42.686;23.350;2023-03-01T03:09:08;2.37;;;2.27;;
2039;SDS011;1025;42.686;23.350;2023-03-01T03:11:35;2.03;;;1.83;;
2039;SDS011;1025;42.686;23.350;2023-03-01T03:14:04;2.50;;;2.40;;
2039;SDS011;1025;42.686;23.350;2023-03-01T03:16:32;2.00;;;1.90;;
2039;SDS011;1025;42.686;23.350;2023-03-01T03:18:59;2.47;;;2.27;;
2039;SDS011;1025;42.686;23.350;2023-03-01T03:21:30;1.70;;;1.60;;
2039;SDS011;1025;42.686;23.350;2023-03-01T03:23:56;2.40;;;2.30;;
2039;SDS011;1025;42.686;23.350;2023-03-01T03:26:23;2.23;;;2.13;;
2039;SDS011;1025;42.686;23.350;2023-03-01T03:28:50;4.87;;;2.23;;
2039;SDS011;1025;42.686;23.350;2023-03-01T03:31:16;2.80;;;2.60;;
2039;SDS011;1025;42.686;23.350;2023-03-01T03:33:44;3.07;;;2.87;;
2039;SDS011;1025;42.686;23.350;2023-03-01T03:36:14;2.83;;;2.60;;
2039;SDS011;1025;42.686;23.350;2023-03-01T03:38:42;2.30;;;2.10;;
2039;SDS011;1025;42.686;23.350;2023-03-01T03:41:09;3.80;;;3.50;;
2039;SDS011;1025;42.686;23.350;2023-03-01T03:43:36;2.60;;;2.43;;
2039;SDS011;1025;42.686;23.350;2023-03-01T03:46:03;4.50;;;2.97;;
2039;SDS011;1025;42.686;23.350;2023-03-01T03:48:31;2.27;;;2.07;;
2039;SDS011;1025;42.686;23.350;2023-03-01T03:50:59;2.73;;;2.43;;
2039;SDS011;1025;42.686;23.350;2023-03-01T03:53:26;2.77;;;2.57;;
2039;SDS011;1025;42.686;23.350;2023-03-01T03:55:53;2.30;;;2.20;;
2039;SDS011;1025;42.686;23.350;2023-03-01T03:58:20;1.80;;;1.70;;
2039;SDS011;1025;42.686;23.350;2023-03-01T04:00:48;3.53;;;3.23;;
2039;SDS011;1025;42.686;23.350;2023-03-01T04:03:15;3.70;;;3.47;;
2039;SDS011;1025;42.686;23.350;2023-03-01T04:05:42;1.37;;;1.30;;
2039;SDS011;1025;42.686;23.350;2023-03-01T04:08:10;3.90;;;2.83;;
2039;SDS011;1025;42.686;23.350;2023-03-01T04:10:37;3.40;;;3.10;;
2039;SDS011;1025;42.686;23.350;2023-03-01T04:13:04;3.13;;;2.93;;
2039;SDS011;1025;42.686;23.350;2023-03-01T04:15:32;4.20;;;3.13;;
2039;SDS011;1025;42.686;23.350;2023-03-01T04:17:58;2.30;;;2.10;;
2039;SDS011;1025;42.686;23.350;2023-03-01T04:20:26;2.67;;;2.47;;
2039;SDS011;1025;42.686;23.350;2023-03-01T04:22:56;2.00;;;1.90;;
2039;SDS011;1025;42.686;23.350;2023-03-01T04:25:25;2.50;;;2.23;;
2039;SDS011;1025;42.686;23.350;2023-03-01T04:27:51;2.73;;;2.53;;
2039;SDS011;1025;42.686;23.350;2023-03-01T04:30:18;4.50;;;2.87;;
2039;SDS011;1025;42.686;23.350;2023-03-01T04:32:44;2.83;;;2.60;;
2039;SDS011;1025;42.686;23.350;2023-03-01T04:35:11;3.03;;;2.73;;
2039;SDS011;1025;42.686;23.350;2023-03-01T04:37:37;2.60;;;1.60;;
2039;SDS011;1025;42.686;23.350;2023-03-01T04:40:05;2.17;;;2.00;;
2039;SDS011;1025;42.686;23.350;2023-03-01T04:42:42;2.87;;;2.67;;
2039;SDS011;1025;42.686;23.350;2023-03-01T04:45:09;2.00;;;1.80;;
2039;SDS011;1025;42.686;23.350;2023-03-01T04:47:38;3.03;;;2.73;;
2039;SDS011;1025;42.686;23.350;2023-03-01T04:50:05;2.47;;;2.27;;
2039;SDS011;1025;42.686;23.350;2023-03-01T04:52:32;2.10;;;1.93;;
2039;SDS011;1025;42.686;23.350;2023-03-01T04:54:58;2.63;;;2.43;;
2039;SDS011;1025;42.686;23.350;2023-03-01T04:57:25;2.80;;;2.60;;
2039;SDS011;1025;42.686;23.350;2023-03-01T04:59:53;2.90;;;2.27;;
2039;SDS011;1025;42.686;23.350;2023-03-01T05:02:20;3.10;;;2.63;;
2039;SDS011;1025;42.686;23.350;2023-03-01T05:04:46;3.40;;;3.20;;
2039;SDS011;1025;42.686;23.350;2023-03-01T05:07:20;3.53;;;2.43;;
2039;SDS011;1025;42.686;23.350;2023-03-01T05:09:51;3.13;;;2.93;;
2039;SDS011;1025;42.686;23.350;2023-03-01T05:12:18;4.20;;;3.87;;
2039;SDS011;1025;42.686;23.350;2023-03-01T05:14:44;3.50;;;3.20;;
2039;SDS011;1025;42.686;23.350;2023-03-01T05:17:13;4.23;;;3.83;;
2039;SDS011;1025;42.686;23.350;2023-03-01T05:19:39;8.40;;;3.60;;
2039;SDS011;1025;42.686;23.350;2023-03-01T05:22:07;5.40;;;4.90;;
2039;SDS011;1025;42.686;23.350;2023-03-01T05:24:34;2.50;;;2.30;;
2039;SDS011;1025;42.686;23.350;2023-03-01T05:27:02;5.80;;;4.60;;
2039;SDS011;1025;42.686;23.350;2023-03-01T05:29:31;5.53;;;5.07;;
2039;SDS011;1025;42.686;23.350;2023-03-01T05:32:01;5.03;;;4.43;;
2039;SDS011;1025;42.686;23.350;2023-03-01T05:34:30;5.10;;;4.60;;
2039;SDS011;1025;42.686;23.350;2023-03-01T05:36:57;3.03;;;2.80;;
2039;SDS011;1025;42.686;23.350;2023-03-01T05:39:24;5.40;;;4.80;;
2039;SDS011;1025;42.686;23.350;2023-03-01T05:41:51;2.93;;;2.70;;
2039;SDS011;1025;42.686;23.350;2023-03-01T05:44:18;4.60;;;4.20;;
2039;SDS011;1025;42.686;23.350;2023-03-01T05:46:45;5.20;;;4.70;;
2039;SDS011;1025;42.686;23.350;2023-03-01T05:49:12;4.43;;;3.70;;
2039;SDS011;1025;42.686;23.350;2023-03-01T05:51:40;4.63;;;3.73;;
2039;SDS011;1025;42.686;23.350;2023-03-01T05:54:06;5.00;;;4.50;;
2039;SDS011;1025;42.686;23.350;2023-03-01T05:56:33;7.23;;;5.03;;
2039;SDS011;1025;42.686;23.350;2023-03-01T05:59:00;4.43;;;4.13;;
2039;SDS011;1025;42.686;23.350;2023-03-01T06:01:26;3.97;;;3.67;;
2039;SDS011;1025;42.686;23.350;2023-03-01T06:03:53;5.20;;;4.70;;
2039;SDS011;1025;42.686;23.350;2023-03-01T06:06:19;4.90;;;4.37;;
2039;SDS011;1025;42.686;23.350;2023-03-01T06:08:47;2.53;;;2.40;;
2039;SDS011;1025;42.686;23.350;2023-03-01T06:11:14;3.77;;;3.37;;
2039;SDS011;1025;42.686;23.350;2023-03-01T06:13:41;5.20;;;2.93;;
2039;SDS011;1025;42.686;23.350;2023-03-01T06:16:08;3.70;;;3.47;;
2039;SDS011;1025;42.686;23.350;2023-03-01T06:18:34;2.80;;;2.60;;
2039;SDS011;1025;42.686;23.350;2023-03-01T06:21:01;3.40;;;2.90;;
2039;SDS011;1025;42.686;23.350;2023-03-01T06:23:28;2.20;;;2.10;;
2039;SDS011;1025;42.686;23.350;2023-03-01T06:25:56;3.93;;;3.50;;
2039;SDS011;1025;42.686;23.350;2023-03-01T06:28:22;2.50;;;2.30;;
2039;SDS011;1025;42.686;23.350;2023-03-01T06:30:49;3.20;;;2.87;;
2039;SDS011;1025;42.686;23.350;2023-03-01T06:33:16;2.87;;;2.67;;
2039;SDS011;1025;42.686;23.350;2023-03-01T06:35:45;3.63;;;3.33;;
2039;SDS011;1025;42.686;23.350;2023-03-01T06:38:11;3.30;;;2.97;;
2039;SDS011;1025;42.686;23.350;2023-03-01T06:40:40;2.53;;;2.43;;
2039;SDS011;1025;42.686;23.350;2023-03-01T06:43:08;2.27;;;2.07;;
2039;SDS011;1025;42.686;23.350;2023-03-01T06:45:34;7.90;;;2.60;;
2039;SDS011;1025;42.686;23.350;2023-03-01T06:48:01;6.20;;;3.07;;
2039;SDS011;1025;42.686;23.350;2023-03-01T06:50:28;3.20;;;2.90;;
2039;SDS011;1025;42.686;23.350;2023-03-01T06:52:55;3.47;;;2.57;;
2039;SDS011;1025;42.686;23.350;2023-03-01T06:55:22;3.90;;;3.50;;
2039;SDS011;1025;42.686;23.350;2023-03-01T06:57:48;5.43;;;3.80;;
2039;SDS011;1025;42.686;23.350;2023-03-01T07:00:17;2.90;;;2.57;;
2039;SDS011;1025;42.686;23.350;2023-03-01T07:02:44;3.73;;;3.43;;
2039;SDS011;1025;42.686;23.350;2023-03-01T07:05:10;3.17;;;2.97;;
2039;SDS011;1025;42.686;23.350;2023-03-01T07:07:37;3.10;;;2.93;;
2039;SDS011;1025;42.686;23.350;2023-03-01T07:10:04;4.20;;;3.03;;
2039;SDS011;1025;42.686;23.350;2023-03-01T07:12:31;2.80;;;2.60;;
2039;SDS011;1025;42.686;23.350;2023-03-01T07:14:57;7.60;;;3.50;;
2039;SDS011;1025;42.686;23.350;2023-03-01T07:17:25;2.50;;;1.97;;
2039;SDS011;1025;42.686;23.350;2023-03-01T07:19:52;7.10;;;2.30;;
2039;SDS011;1025;42.686;23.350;2023-03-01T07:22:18;4.67;;;3.40;;
2039;SDS011;1025;42.686;23.350;2023-03-01T07:24:45;3.47;;;2.87;;
2039;SDS011;1025;42.686;23.350;2023-03-01T07:27:11;11.33;;;4.20;;
2039;SDS011;1025;42.686;23.350;2023-03-01T07:29:38;2.87;;;2.40;;
2039;SDS011;1025;42.686;23.350;2023-03-01T07:32:05;1.73;;;1.67;;
2039;SDS011;1025;42.686;23.350;2023-03-01T07:34:33;2.70;;;2.50;;
2039;SDS011;1025;42.686;23.350;2023-03-01T07:36:59;4.33;;;3.93;;
2039;SDS011;1025;42.686;23.350;2023-03-01T07:39:26;3.83;;;3.60;;
2039;SDS011;1025;42.686;23.350;2023-03-01T07:41:53;4.60;;;3.23;;
2039;SDS011;1025;42.686;23.350;2023-03-01T07:44:19;2.27;;;2.07;;
2039;SDS011;1025;42.686;23.350;2023-03-01T07:46:46;1.80;;;1.70;;
2039;SDS011;1025;42.686;23.350;2023-03-01T07:49:12;2.43;;;2.07;;
2039;SDS011;1025;42.686;23.350;2023-03-01T07:51:40;5.50;;;3.17;;
2039;SDS011;1025;42.686;23.350;2023-03-01T07:54:07;8.07;;;2.30;;
2039;SDS011;1025;42.686;23.350;2023-03-01T07:56:33;3.23;;;3.00;;
2039;SDS011;1025;42.686;23.350;2023-03-01T07:59:00;2.10;;;1.83;;
2039;SDS011;1025;42.686;23.350;2023-03-01T08:01:27;2.50;;;2.30;;
2039;SDS011;1025;42.686;23.350;2023-03-01T08:03:53;2.97;;;1.90;;
2039;SDS011;1025;42.686;23.350;2023-03-01T08:06:20;4.73;;;2.60;;
2039;SDS011;1025;42.686;23.350;2023-03-01T08:08:48;1.53;;;1.43;;
2039;SDS011;1025;42.686;23.350;2023-03-01T08:11:14;5.57;;;2.83;;
2039;SDS011;1025;42.686;23.350;2023-03-01T08:13:41;3.90;;;2.40;;
2039;SDS011;1025;42.686;23.350;2023-03-01T08:16:09;2.13;;;2.00;;
2039;SDS011;1025;42.686;23.350;2023-03-01T08:18:36;3.00;;;2.60;;
2039;SDS011;1025;42.686;23.350;2023-03-01T08:21:03;2.87;;;2.60;;
2039;SDS011;1025;42.686;23.350;2023-03-01T08:23:30;2.33;;;1.80;;
2039;SDS011;1025;42.686;23.350;2023-03-01T08:26:04;2.10;;;1.97;;
2039;SDS011;1025;42.686;23.350;2023-03-01T08:28:31;2.70;;;2.50;;
2039;SDS011;1025;42.686;23.350;2023-03-01T08:30:58;5.80;;;2.57;;
2039;SDS011;1025;42.686;23.350;2023-03-01T08:33:24;2.50;;;2.30;;
2039;SDS011;1025;42.686;23.350;2023-03-01T08:35:51;3.97;;;2.30;;
2039;SDS011;1025;42.686;23.350;2023-03-01T08:38:18;3.63;;;3.40;;
2039;SDS011;1025;42.686;23.350;2023-03-01T08:40:44;9.43;;;2.93;;
2039;SDS011;1025;42.686;23.350;2023-03-01T08:43:12;3.40;;;3.17;;
2039;SDS011;1025;42.686;23.350;2023-03-01T08:45:39;2.60;;;2.40;;
2039;SDS011;1025;42.686;23.350;2023-03-01T08:48:05;6.73;;;3.10;;
2039;SDS011;1025;42.686;23.350;2023-03-01T08:50:32;3.23;;;2.77;;
2039;SDS011;1025;42.686;23.350;2023-03-01T08:52:58;5.00;;;3.60;;
2039;SDS011;1025;42.686;23.350;2023-03-01T08:55:25;6.83;;;3.43;;
2039;SDS011;1025;42.686;23.350;2023-03-01T08:57:51;2.60;;;2.40;;
2039;SDS011;1025;42.686;23.350;2023-03-01T09:00:20;2.90;;;2.70;;
2039;SDS011;1025;42.686;23.350;2023-03-01T09:02:48;2.50;;;2.40;;
2039;SDS011;1025;42.686;23.350;2023-03-01T09:05:14;3.13;;;2.83;;
2039;SDS011;1025;42.686;23.350;2023-03-01T09:07:41;2.83;;;2.63;;
2039;SDS011;1025;42.686;23.350;2023-03-01T09:10:08;3.33;;;3.03;;
2039;SDS011;1025;42.686;23.350;2023-03-01T09:12:35;2.80;;;2.40;;
2039;SDS011;1025;42.686;23.350;2023-03-01T09:15:02;2.33;;;2.17;;
2039;SDS011;1025;42.686;23.350;2023-03-01T09:17:30;2.20;;;2.00;;
2039;SDS011;1025;42.686;23.350;2023-03-01T09:19:56;1.73;;;1.60;;
2039;SDS011;1025;42.686;23.350;2023-03-01T09:22:24;3.60;;;1.77;;
2039;SDS011;1025;42.686;23.350;2023-03-01T09:24:51;2.30;;;2.10;;
2039;SDS011;1025;42.686;23.350;2023-03-01T09:27:17;2.30;;;2.10;;
2039;SDS011;1025;42.686;23.350;2023-03-01T09:29:45;1.70;;;1.60;;
2039;SDS011;1025;42.686;23.350;2023-03-01T09:32:12;3.57;;;1.90;;
2039;SDS011;1025;42.686;23.350;2023-03-01T09:34:40;2.60;;;2.40;;
2039;SDS011;1025;42.686;23.350;2023-03-01T09:37:20;1.60;;;1.50;;
2039;SDS011;1025;42.686;23.350;2023-03-01T09:39:48;1.80;;;1.70;;
2039;SDS011;1025;42.686;23.350;2023-03-01T09:42:15;2.17;;;1.97;;
2039;SDS011;1025;42.686;23.350;2023-03-01T09:44:43;5.37;;;2.77;;
2039;SDS011;1025;42.686;23.350;2023-03-01T09:47:14;2.60;;;2.30;;
2039;SDS011;1025;42.686;23.350;2023-03-01T09:49:43;1.60;;;1.50;;
2039;SDS011;1025;42.686;23.350;2023-03-01T09:52:17;1.30;;;1.20;;
2039;SDS011;1025;42.686;23.350;2023-03-01T09:54:46;2.30;;;2.10;;
2039;SDS011;1025;42.686;23.350;2023-03-01T09:57:17;7.63;;;2.47;;
2039;SDS011;1025;42.686;23.350;2023-03-01T09:59:57;0.87;;;0.87;;
2039;SDS011;1025;42.686;23.350;2023-03-01T10:02:30;2.27;;;1.33;;
2039;SDS011;1025;42.686;23.350;2023-03-01T10:05:09;2.10;;;1.90;;
2039;SDS011;1025;42.686;23.350;2023-03-01T10:07:38;1.80;;;1.70;;
2039;SDS011;1025;42.686;23.350;2023-03-01T10:10:07;3.37;;;2.30;;
2039;SDS011;1025;42.686;23.350;2023-03-01T10:12:35;2.77;;;1.53;;
2039;SDS011;1025;42.686;23.350;2023-03-01T10:15:04;4.63;;;2.43;;
2039;SDS011;1025;42.686;23.350;2023-03-01T10:17:33;1.63;;;1.53;;
2039;SDS011;1025;42.686;23.350;2023-03-01T10:20:10;1.10;;;1.00;;
2039;SDS011;1025;42.686;23.350;2023-03-01T10:22:39;2.63;;;1.87;;
2039;SDS011;1025;42.686;23.350;2023-03-01T10:25:06;3.97;;;1.37;;
2039;SDS011;1025;42.686;23.350;2023-03-01T10:27:37;3.83;;;2.17;;
2039;SDS011;1025;42.686;23.350;2023-03-01T10:30:05;2.10;;;2.00;;
2039;SDS011;1025;42.686;23.350;2023-03-01T10:32:36;2.83;;;1.80;;
2039;SDS011;1025;42.686;23.350;2023-03-01T10:35:16;2.27;;;2.17;;
2039;SDS011;1025;42.686;23.350;2023-03-01T10:37:46;4.57;;;1.70;;
2039;SDS011;1025;42.686;23.350;2023-03-01T10:40:22;2.10;;;2.00;;
2039;SDS011;1025;42.686;23.350;2023-03-01T10:42:49;2.23;;;1.90;;
2039;SDS011;1025;42.686;23.350;2023-03-01T10:45:19;1.47;;;1.37;;
2039;SDS011;1025;42.686;23.350;2023-03-01T10:48:01;1.70;;;1.60;;
2039;SDS011;1025;42.686;23.350;2023-03-01T10:50:31;1.00;;;1.00;;
2039;SDS011;1025;42.686;23.350;2023-03-01T10:52:59;2.97;;;1.77;;
2039;SDS011;1025;42.686;23.350;2023-03-01T10:55:27;1.97;;;1.40;;
2039;SDS011;1025;42.686;23.350;2023-03-01T10:58:06;1.50;;;1.40;;
2039;SDS011;1025;42.686;23.350;2023-03-01T11:00:34;1.80;;;1.30;;
2039;SDS011;1025;42.686;23.350;2023-03-01T11:03:13;1.77;;;1.20;;
2039;SDS011;1025;42.686;23.350;2023-03-01T11:05:51;2.07;;;1.97;;
2039;SDS011;1025;42.686;23.350;2023-03-01T11:08:30;4.17;;;1.60;;
2039;SDS011;1025;42.686;23.350;2023-03-01T11:11:14;1.50;;;1.10;;
2039;SDS011;1025;42.686;23.350;2023-03-01T11:13:51;1.40;;;1.30;;
2039;SDS011;1025;42.686;23.350;2023-03-01T11:16:22;3.53;;;1.60;;
2039;SDS011;1025;42.686;23.350;2023-03-01T11:18:55;2.90;;;2.60;;
2039;SDS011;1025;42.686;23.350;2023-03-01T11:21:24;1.53;;;1.43;;
2039;SDS011;1025;42.686;23.350;2023-03-01T11:23:53;1.70;;;1.60;;
2039;SDS011;1025;42.686;23.350;2023-03-01T11:26:20;1.70;;;1.60;;
2039;SDS011;1025;42.686;23.350;2023-03-01T11:28:48;2.47;;;1.70;;
2039;SDS011;1025;42.686;23.350;2023-03-01T11:31:16;2.90;;;1.30;;
2039;SDS011;1025;42.686;23.350;2023-03-01T11:33:44;1.50;;;1.40;;
2039;SDS011;1025;42.686;23.350;2023-03-01T11:36:15;1.73;;;1.63;;
2039;SDS011;1025;42.686;23.350;2023-03-01T11:38:44;1.97;;;1.87;;
2039;SDS011;1025;42.686;23.350;2023-03-01T11:41:12;1.77;;;1.67;;
2039;SDS011;1025;42.686;23.350;2023-03-01T11:43:43;1.00;;;1.00;;
2039;SDS011;1025;42.686;23.350;2023-03-01T11:46:29;1.83;;;1.73;;
2039;SDS011;1025;42.686;23.350;2023-03-01T11:49:05;2.17;;;2.00;;
2039;SDS011;1025;42.686;23.350;2023-03-01T11:51:42;1.77;;;1.67;;
2039;SDS011;1025;42.686;23.350;2023-03-01T11:54:20;1.93;;;1.83;;
2039;SDS011;1025;42.686;23.350;2023-03-01T11:56:52;1.73;;;1.63;;
2039;SDS011;1025;42.686;23.350;2023-03-01T12:02:32;1.90;;;1.60;;
2039;SDS011;1025;42.686;23.350;2023-03-01T12:07:46;1.70;;;1.60;;
2039;SDS011;1025;42.686;23.350;2023-03-01T12:10:25;2.07;;;1.90;;
2039;SDS011;1025;42.686;23.350;2023-03-01T12:12:56;2.10;;;2.00;;
2039;SDS011;1025;42.686;23.350;2023-03-01T12:15:33;4.63;;;3.47;;
2039;SDS011;1025;42.686;23.350;2023-03-01T12:20:51;3.40;;;3.10;;
2039;SDS011;1025;42.686;23.350;2023-03-01T12:23:29;3.87;;;3.47;;
2039;SDS011;1025;42.686;23.350;2023-03-01T12:26:03;3.67;;;2.47;;
2039;SDS011;1025;42.686;23.350;2023-03-01T12:33:54;2.47;;;2.27;;
2039;SDS011;1025;42.686;23.350;2023-03-01T12:36:27;2.40;;;2.20;;
2039;SDS011;1025;42.686;23.350;2023-03-01T12:38:59;2.10;;;2.00;;
2039;SDS011;1025;42.686;23.350;2023-03-01T12:44:28;2.87;;;2.67;;
2039;SDS011;1025;42.686;23.350;2023-03-01T12:47:08;2.67;;;2.47;;
2039;SDS011;1025;42.686;23.350;2023-03-01T12:49:38;5.43;;;3.40;;
2039;SDS011;1025;42.686;23.350;2023-03-01T12:52:09;3.33;;;3.03;;
2039;SDS011;1025;42.686;23.350;2023-03-01T12:54:36;4.07;;;3.20;;
2039;SDS011;1025;42.686;23.350;2023-03-01T12:57:06;2.20;;;2.10;;
2039;SDS011;1025;42.686;23.350;2023-03-01T12:59:38;4.30;;;2.97;;
2039;SDS011;1025;42.686;23.350;2023-03-01T13:02:09;3.13;;;2.83;;
2039;SDS011;1025;42.686;23.350;2023-03-01T13:04:41;2.90;;;2.70;;
2039;SDS011;1025;42.686;23.350;2023-03-01T13:07:15;2.93;;;2.20;;
2039;SDS011;1025;42.686;23.350;2023-03-01T13:09:46;3.90;;;2.97;;
2039;SDS011;1025;42.686;23.350;2023-03-01T13:15:01;2.13;;;2.03;;
2039;SDS011;1025;42.686;23.350;2023-03-01T13:17:31;3.00;;;2.70;;
2039;SDS011;1025;42.686;23.350;2023-03-01T13:19:58;2.07;;;1.83;;
2039;SDS011;1025;42.686;23.350;2023-03-01T13:22:26;2.60;;;2.40;;
2039;SDS011;1025;42.686;23.350;2023-03-01T13:25:00;1.70;;;1.60;;
2039;SDS011;1025;42.686;23.350;2023-03-01T13:27:27;2.00;;;1.90;;
2039;SDS011;1025;42.686;23.350;2023-03-01T13:29:55;2.47;;;2.20;;
2039;SDS011;1025;42.686;23.350;2023-03-01T13:32:23;2.53;;;2.33;;
2039;SDS011;1025;42.686;23.350;2023-03-01T13:34:59;2.83;;;2.30;;
2039;SDS011;1025;42.686;23.350;2023-03-01T13:37:31;2.37;;;2.10;;
2039;SDS011;1025;42.686;23.350;2023-03-01T13:39:58;2.80;;;2.50;;
2039;SDS011;1025;42.686;23.350;2023-03-01T13:42:36;3.77;;;2.20;;
2039;SDS011;1025;42.686;23.350;2023-03-01T13:45:04;2.67;;;2.47;;
2039;SDS011;1025;42.686;23.350;2023-03-01T13:47:33;2.93;;;2.73;;
2039;SDS011;1025;42.686;23.350;2023-03-01T13:50:02;1.77;;;1.67;;
2039;SDS011;1025;42.686;23.350;2023-03-01T13:52:32;2.60;;;2.40;;
2039;SDS011;1025;42.686;23.350;2023-03-01T13:55:00;3.63;;;3.33;;
2039;SDS011;1025;42.686;23.350;2023-03-01T13:57:29;3.77;;;3.00;;
2039;SDS011;1025;42.686;23.350;2023-03-01T13:59:57;3.80;;;2.80;;
2039;SDS011;1025;42.686;23.350;2023-03-01T14:02:24;2.70;;;2.50;;
2039;SDS011;1025;42.686;23.350;2023-03-01T14:04:57;2.03;;;1.90;;
2039;SDS011;1025;42.686;23.350;2023-03-01T14:07:24;2.47;;;2.23;;
2039;SDS011;1025;42.686;23.350;2023-03-01T14:09:52;2.50;;;2.30;;
2039;SDS011;1025;42.686;23.350;2023-03-01T14:12:23;4.23;;;3.03;;
2039;SDS011;1025;42.686;23.350;2023-03-01T14:14:52;3.40;;;3.10;;
2039;SDS011;1025;42.686;23.350;2023-03-01T14:20:11;2.27;;;2.07;;
2039;SDS011;1025;42.686;23.350;2023-03-01T14:22:38;3.30;;;3.00;;
2039;SDS011;1025;42.686;23.350;2023-03-01T14:25:16;3.03;;;2.80;;
2039;SDS011;1025;42.686;23.350;2023-03-01T14:27:43;2.40;;;2.20;;
2039;SDS011;1025;42.686;23.350;2023-03-01T14:30:11;3.80;;;3.50;;
2039;SDS011;1025;42.686;23.350;2023-03-01T14:32:39;4.23;;;2.90;;
2039;SDS011;1025;42.686;23.350;2023-03-01T14:35:18;3.50;;;2.80;;
2039;SDS011;1025;42.686;23.350;2023-03-01T14:37:45;2.80;;;2.60;;
2039;SDS011;1025;42.686;23.350;2023-03-01T14:40:20;3.83;;;2.20;;
2039;SDS011;1025;42.686;23.350;2023-03-01T14:42:47;2.47;;;2.33;;
2039;SDS011;1025;42.686;23.350;2023-03-01T14:45:13;3.13;;;2.57;;
2039;SDS011;1025;42.686;23.350;2023-03-01T14:47:40;2.13;;;1.90;;
2039;SDS011;1025;42.686;23.350;2023-03-01T14:50:08;3.00;;;2.80;;
2039;SDS011;1025;42.686;23.350;2023-03-01T14:52:37;3.97;;;2.70;;
2039;SDS011;1025;42.686;23.350;2023-03-01T14:55:05;4.10;;;1.77;;
2039;SDS011;1025;42.686;23.350;2023-03-01T14:57:33;4.30;;;2.60;;
2039;SDS011;1025;42.686;23.350;2023-03-01T15:00:00;2.33;;;1.90;;
2039;SDS011;1025;42.686;23.350;2023-03-01T15:02:29;3.97;;;2.53;;
2039;SDS011;1025;42.686;23.350;2023-03-01T15:04:57;1.70;;;1.60;;
2039;SDS011;1025;42.686;23.350;2023-03-01T15:07:26;4.90;;;3.10;;
2039;SDS011;1025;42.686;23.350;2023-03-01T15:09:54;2.30;;;2.20;;
2039;SDS011;1025;42.686;23.350;2023-03-01T15:12:25;3.20;;;2.87;;
2039;SDS011;1025;42.686;23.350;2023-03-01T15:14:52;4.87;;;2.77;;
2039;SDS011;1025;42.686;23.350;2023-03-01T15:17:20;8.10;;;2.50;;
2039;SDS011;1025;42.686;23.350;2023-03-01T15:19:47;2.53;;;2.00;;
2039;SDS011;1025;42.686;23.350;2023-03-01T15:22:14;3.03;;;2.83;;
2039;SDS011;1025;42.686;23.350;2023-03-01T15:24:41;4.10;;;2.87;;
2039;SDS011;1025;42.686;23.350;2023-03-01T15:27:15;2.77;;;2.43;;
2039;SDS011;1025;42.686;23.350;2023-03-01T15:29:46;4.00;;;3.40;;
2039;SDS011;1025;42.686;23.350;2023-03-01T15:32:24;4.27;;;3.10;;